EGHI/SOU METAR and TAF weather

Enter ICAO airport designator
Station Type Date Time Source
EGHI METAR 2021/09/16 11:20 UTC NOAA

EGHI 161120Z VRB01KT 9999 SCT015 19/14 Q1019


Station Type Date Time Source
EGHI Decoded METAR 2021/09/16 11:20 UTC NOAA

Southampton / Weather Centre, United Kingdom (EGHI) 50-54N 001-24W 0M
Sep 16, 2021 - 07:20 AM EDT / 2021.09.16 1120 UTC
Wind: Variable at 1 MPH (1 KT):0
Visibility: greater than 7 mile(s):0
Sky conditions: partly cloudy
Temperature: 66 F (19 C)
Dew Point: 57 F (14 C)
Relative Humidity: 72%
Pressure (altimeter): 30.09 in. Hg (1019 hPa)
ob: EGHI 161120Z VRB01KT 9999 SCT015 19/14 Q1019
cycle: 11

Station Type Date Time Source
EGHI TAF 2021/08/09 18:39 UTC NOAA

TAF EGHI 092231Z 0918/1022 CNL

Example: see airport list